Time;durP1;ratioP1;P1;durP2;ratioP2;P2;SDS_P1;SDS_P2;PMS_P1;PMS_P2;Temp;Humidity;BMP_temperature;BMP_pressure;BME280_temperature;BME280_humidity;BME280_pressure;Samples;Min_cycle;Max_cycle;Signal;HPM_P1;HPM_P2
2021/09/13 00:01:05;;;;;;;0.35;0.35;;;;;;;1.00;69.08;98085.63;6184129;23;20024;-66
2021/09/13 00:03:30;;;;;;;0.20;0.20;;;;;;;0.97;69.11;98078.75;6184381;23;20013;-64
2021/09/13 00:05:56;;;;;;;0.20;0.20;;;;;;;0.94;69.16;98080.97;6184220;23;20101;-63
2021/09/13 00:08:22;;;;;;;0.20;0.20;;;;;;;0.92;69.35;98085.75;6184512;23;20013;-63
2021/09/13 00:10:48;;;;;;;0.20;0.20;;;;;;;0.92;69.35;98088.44;6184139;23;20043;-65
2021/09/13 00:13:14;;;;;;;0.20;0.20;;;;;;;0.90;69.16;98083.25;6186045;23;20048;-65
2021/09/13 00:15:40;;;;;;;0.20;0.20;;;;;;;0.88;69.07;98082.56;6186030;23;20013;-64
2021/09/13 00:18:06;;;;;;;0.20;0.20;;;;;;;0.87;69.38;98086.31;6186130;23;20319;-66
2021/09/13 00:20:32;;;;;;;0.20;0.20;;;;;;;0.88;69.35;98082.56;6186424;23;20009;-65
2021/09/13 00:22:57;;;;;;;0.20;0.20;;;;;;;0.89;69.33;98086.13;6186127;23;20020;-65
2021/09/13 00:25:23;;;;;;;0.20;0.20;;;;;;;0.91;69.30;98079.47;6186236;23;20348;-65
2021/09/13 00:27:49;;;;;;;1.23;0.47;;;;;;;0.94;69.11;98083.69;6185428;23;20059;-64
2021/09/13 00:30:14;;;;;;;0.20;0.20;;;;;;;0.98;69.21;98084.97;6186205;23;20052;-65
2021/09/13 00:32:40;;;;;;;0.20;0.20;;;;;;;1.01;69.17;98090.81;6186214;23;20019;-66
2021/09/13 00:35:07;;;;;;;0.50;0.40;;;;;;;1.00;69.13;98086.47;6186537;23;20013;-65
2021/09/13 00:37:33;;;;;;;0.20;0.20;;;;;;;0.99;69.22;98090.19;6186185;23;20016;-65
2021/09/13 00:39:58;;;;;;;0.20;0.20;;;;;;;0.94;69.23;98084.50;6186238;23;20498;-64
2021/09/13 00:42:24;;;;;;;0.20;0.20;;;;;;;0.90;69.25;98079.69;6186228;23;20019;-64
2021/09/13 00:44:50;;;;;;;0.20;0.20;;;;;;;0.86;69.29;98085.47;6185801;23;20009;-62
2021/09/13 00:47:16;;;;;;;0.20;0.20;;;;;;;0.84;69.51;98087.53;6185678;23;20013;-64
2021/09/13 00:49:41;;;;;;;0.20;0.20;;;;;;;0.83;69.44;98095.84;6185867;23;20125;-65
2021/09/13 00:52:07;;;;;;;0.20;0.20;;;;;;;0.78;69.53;98095.56;6185657;23;20053;-63
2021/09/13 00:54:34;;;;;;;0.30;0.30;;;;;;;0.72;69.51;98099.84;6185588;23;20036;-66
2021/09/13 00:57:00;;;;;;;0.20;0.20;;;;;;;0.67;69.71;98102.28;6185953;23;20009;-63
2021/09/13 00:59:25;;;;;;;0.20;0.20;;;;;;;0.61;69.82;98101.19;6184960;23;20465;-65
2021/09/13 01:01:51;;;;;;;0.30;0.30;;;;;;;0.55;69.93;98104.63;6185574;23;20021;-67
2021/09/13 01:04:17;;;;;;;0.25;0.25;;;;;;;0.52;70.00;98102.31;6185538;23;20019;-64
2021/09/13 01:06:43;;;;;;;0.30;0.30;;;;;;;0.50;69.96;98104.34;6185869;23;20047;-66
2021/09/13 01:09:08;;;;;;;0.20;0.20;;;;;;;0.50;69.96;98104.34;6185657;23;20412;-65
2021/09/13 01:11:35;;;;;;;0.20;0.20;;;;;;;0.51;69.76;98108.72;6185922;23;20013;-65
2021/09/13 01:14:00;;;;;;;0.30;0.30;;;;;;;0.52;69.74;98110.41;6185543;23;20012;-65
2021/09/13 01:16:26;;;;;;;1.10;1.00;;;;;;;0.53;69.91;98112.09;6185583;23;20063;-67
2021/09/13 01:18:52;;;;;;;0.30;0.30;;;;;;;0.53;69.70;98101.31;6185576;23;20095;-67
2021/09/13 01:21:17;;;;;;;0.20;0.20;;;;;;;0.54;69.80;98092.16;6185500;23;20434;-66
2021/09/13 01:23:43;;;;;;;0.30;0.30;;;;;;;0.58;69.75;98109.66;6185417;23;20009;-66
2021/09/13 01:26:10;;;;;;;0.32;0.30;;;;;;;0.60;69.33;98104.06;6185521;23;20013;-65
2021/09/13 01:28:36;;;;;;;0.63;0.50;;;;;;;0.62;69.61;98107.41;6184886;23;20013;-66
2021/09/13 01:31:01;;;;;;;0.50;0.50;;;;;;;0.63;69.67;98104.53;6185528;23;20016;-65
2021/09/13 01:33:27;;;;;;;0.30;0.30;;;;;;;0.66;69.51;98096.06;6185584;23;20019;-66
2021/09/13 01:35:53;;;;;;;0.30;0.30;;;;;;;0.67;69.55;98097.72;6185529;23;20354;-66
2021/09/13 01:38:23;;;;;;;0.20;0.20;;;;;;;0.70;69.34;98094.63;6185853;23;20008;-64
2021/09/13 01:40:50;;;;;;;0.20;0.20;;;;;;;0.75;69.38;98104.03;6185963;23;20064;-64
2021/09/13 01:43:17;;;;;;;0.30;0.30;;;;;;;0.79;69.27;98102.63;6185471;23;20013;-65
2021/09/13 01:45:42;;;;;;;0.20;0.20;;;;;;;0.82;69.24;98105.78;6185312;23;20041;-66
2021/09/13 01:48:09;;;;;;;0.38;0.38;;;;;;;0.87;69.08;98102.53;6185238;23;20012;-66
2021/09/13 01:50:35;;;;;;;0.20;0.20;;;;;;;0.93;69.08;98098.22;6185446;23;20335;-64
2021/09/13 01:53:00;;;;;;;0.30;0.30;;;;;;;1.00;69.08;98110.81;6185468;23;20028;-64
2021/09/13 01:55:26;;;;;;;0.20;0.20;;;;;;;1.05;68.94;98105.66;6185463;23;20014;-65
2021/09/13 01:57:52;;;;;;;0.25;0.25;;;;;;;1.13;68.76;98109.25;6184599;23;20017;-65
2021/09/13 02:00:18;;;;;;;0.20;0.20;;;;;;;1.17;68.72;98097.88;6185612;23;20025;-65
2021/09/13 02:02:43;;;;;;;0.20;0.20;;;;;;;1.24;68.69;98108.75;6184788;23;20104;-66
2021/09/13 02:05:09;;;;;;;0.20;0.20;;;;;;;1.29;68.39;98095.47;6185033;23;20323;-64
2021/09/13 02:07:35;;;;;;;0.20;0.20;;;;;;;1.42;68.36;98100.19;6185543;23;20354;-65
2021/09/13 02:10:01;;;;;;;0.20;0.20;;;;;;;1.57;67.96;98087.41;6185403;23;20012;-64
2021/09/13 02:12:27;;;;;;;0.20;0.20;;;;;;;1.71;67.72;98092.97;6184940;23;20013;-66
2021/09/13 02:14:52;;;;;;;0.40;0.40;;;;;;;1.90;67.37;98092.28;6184946;23;20353;-64
2021/09/13 02:17:18;;;;;;;0.20;0.20;;;;;;;2.08;67.05;98097.19;6185124;23;20518;-65
2021/09/13 02:19:46;;;;;;;0.20;0.20;;;;;;;2.26;66.90;98095.84;6185720;23;20020;-64
2021/09/13 02:22:12;;;;;;;0.32;0.32;;;;;;;2.35;66.67;98086.50;6185352;23;20084;-63
2021/09/13 02:24:38;;;;;;;0.50;0.50;;;;;;;2.50;66.50;98093.69;6184776;23;20095;-65
2021/09/13 02:27:04;;;;;;;0.20;0.20;;;;;;;2.67;66.31;98089.59;6184979;23;20009;-63
2021/09/13 02:29:30;;;;;;;0.20;0.20;;;;;;;2.88;65.97;98104.06;6184089;23;20503;-63
2021/09/13 02:31:55;;;;;;;0.20;0.20;;;;;;;3.11;65.45;98090.19;6184404;23;20009;-63
2021/09/13 02:34:21;;;;;;;0.30;0.30;;;;;;;3.58;64.55;98085.66;6183938;23;20001;-65
2021/09/13 02:36:47;;;;;;;0.20;0.20;;;;;;;4.29;63.17;98088.75;6184217;23;20013;-64
2021/09/13 02:39:13;;;;;;;0.20;0.20;;;;;;;4.80;62.02;98081.69;6181358;23;20016;-63
2021/09/13 02:41:38;;;;;;;0.32;0.32;;;;;;;5.31;61.17;98083.50;6183366;23;20009;-63
2021/09/13 02:44:05;;;;;;;0.30;0.30;;;;;;;5.81;60.51;98080.00;6183205;23;20009;-63
2021/09/13 02:46:30;;;;;;;0.52;0.30;;;;;;;6.76;58.83;98083.53;6183331;23;20009;-63
2021/09/13 02:48:56;;;;;;;0.20;0.20;;;;;;;8.46;55.50;98074.25;6183227;23;20012;-63
2021/09/13 02:51:22;;;;;;;0.20;0.20;;;;;;;10.29;52.33;98068.88;6183437;23;20013;-63
2021/09/13 02:53:48;;;;;;;0.20;0.20;;;;;;;11.63;50.58;98071.41;6183977;23;20100;-63
2021/09/13 02:56:13;;;;;;;0.20;0.20;;;;;;;12.29;50.03;98066.75;6184760;23;20009;-63
2021/09/13 02:58:39;;;;;;;0.20;0.20;;;;;;;13.25;49.36;98070.28;6183884;23;20009;-63
2021/09/13 03:01:05;;;;;;;0.20;0.20;;;;;;;14.54;47.77;98061.00;6184575;23;20083;-63
2021/09/13 03:03:31;;;;;;;0.20;0.20;;;;;;;15.75;46.44;98074.91;6184569;23;20032;-63
2021/09/13 03:05:57;;;;;;;0.20;0.20;;;;;;;16.56;46.21;98071.81;6184761;23;20345;-62
2021/09/13 03:08:22;;;;;;;0.10;0.10;;;;;;;17.36;45.68;98070.38;6184371;23;20386;-62
2021/09/13 03:10:48;;;;;;;0.10;0.10;;;;;;;18.06;45.38;98073.56;6184482;23;20039;-63
2021/09/13 03:13:15;;;;;;;0.20;0.20;;;;;;;18.64;45.05;98080.63;6184828;23;20403;-63
2021/09/13 03:15:40;;;;;;;0.10;0.10;;;;;;;19.15;45.08;98067.72;6184381;23;20342;-63
2021/09/13 03:18:06;;;;;;;0.20;0.20;;;;;;;19.99;44.37;98074.00;6184606;23;20013;-62
2021/09/13 03:20:32;;;;;;;0.20;0.20;;;;;;;20.39;44.09;98068.56;6184502;23;20319;-62
2021/09/13 03:22:58;;;;;;;0.35;0.35;;;;;;;21.03;43.84;98064.69;6184097;23;20012;-63
2021/09/13 03:25:26;;;;;;;0.13;0.13;;;;;;;21.88;42.77;98064.41;6181561;23;20450;-62
2021/09/13 03:27:52;;;;;;;0.15;0.15;;;;;;;22.53;42.19;98059.75;6182405;23;20461;-62
2021/09/13 03:30:17;;;;;;;0.20;0.20;;;;;;;22.69;42.50;98062.84;6182979;23;20071;-62
2021/09/13 03:32:43;;;;;;;0.10;0.10;;;;;;;23.17;42.51;98063.69;6182808;23;20009;-61
2021/09/13 03:35:09;;;;;;;0.10;0.10;;;;;;;23.74;41.82;98056.75;6182972;23;20442;-63
2021/09/13 03:37:35;;;;;;;0.10;0.10;;;;;;;24.15;41.80;98057.13;6183179;23;20378;-62
2021/09/13 03:40:02;;;;;;;0.20;0.20;;;;;;;24.49;41.77;98053.16;6183450;23;20013;-63
2021/09/13 03:42:28;;;;;;;4.03;0.32;;;;;;;25.12;40.70;98063.41;6182923;23;20024;-63
2021/09/13 03:44:54;;;;;;;0.20;0.20;;;;;;;25.86;40.23;98057.72;6183084;23;20009;-62
2021/09/13 03:47:19;;;;;;;0.20;0.20;;;;;;;26.44;39.69;98055.81;6184259;23;20001;-62
2021/09/13 03:49:45;;;;;;;0.20;0.20;;;;;;;26.63;39.51;98058.75;6184908;23;20016;-62
2021/09/13 03:52:11;;;;;;;0.75;0.28;;;;;;;26.89;39.52;98046.22;6184949;23;20092;-62
2021/09/13 03:54:37;;;;;;;0.20;0.20;;;;;;;27.19;39.11;98037.31;6184990;23;20017;-63
2021/09/13 03:57:04;;;;;;;0.10;0.10;;;;;;;27.32;39.20;98041.66;6185095;23;20092;-63
2021/09/13 03:59:33;;;;;;;0.17;0.17;;;;;;;25.48;41.84;98039.28;6184506;23;20349;-62
2021/09/13 04:01:59;;;;;;;0.55;0.22;;;;;;;22.05;47.17;98042.03;6184910;23;20375;-62
2021/09/13 04:04:28;;;;;;;0.10;0.10;;;;;;;19.23;52.62;98050.31;6184867;23;20067;-62
2021/09/13 04:08:05;;;;;;;14.23;0.75;;;;;;;16.81;56.91;98046.59;6184868;23;20013;-63
2021/09/13 04:12:44;;;;;;;0.65;0.40;;;;;;;13.18;62.51;98048.50;6079110;23;20019;-63
2021/09/13 04:15:10;;;;;;;3.10;0.32;;;;;;;12.17;63.69;98061.44;6184704;23;20017;-62
2021/09/13 04:17:35;;;;;;;0.40;0.40;;;;;;;11.35;64.00;98058.72;6183340;23;20016;-63
2021/09/13 04:20:01;;;;;;;18.63;0.68;;;;;;;10.74;64.05;98056.91;6185010;23;20017;-62
2021/09/13 04:22:27;;;;;;;0.32;0.32;;;;;;;10.33;63.67;98068.19;6184771;23;20464;-63
2021/09/13 04:24:53;;;;;;;0.43;0.43;;;;;;;10.07;63.35;98057.84;6184673;23;20013;-63
2021/09/13 04:27:18;;;;;;;0.20;0.20;;;;;;;9.86;62.45;98063.00;6184151;23;20013;-63
2021/09/13 04:29:44;;;;;;;0.50;0.50;;;;;;;9.64;61.83;98062.88;6184562;23;20013;-63
2021/09/13 04:32:10;;;;;;;0.38;0.38;;;;;;;9.41;61.46;98061.13;6184376;23;20016;-64
2021/09/13 04:34:39;;;;;;;0.93;0.82;;;;;;;9.21;61.17;98067.03;6158098;23;20019;-63
2021/09/13 04:37:05;;;;;;;0.20;0.20;;;;;;;8.97;60.97;98061.66;6184530;23;20087;-63
2021/09/13 04:39:30;;;;;;;0.45;0.45;;;;;;;8.79;60.39;98057.19;6184388;23;20053;-63
2021/09/13 04:41:56;;;;;;;0.32;0.32;;;;;;;8.75;59.93;98061.47;6184501;23;20020;-62
2021/09/13 04:44:22;;;;;;;0.30;0.30;;;;;;;8.64;59.65;98065.88;6184361;23;20044;-63
2021/09/13 04:46:48;;;;;;;0.35;0.35;;;;;;;8.54;59.46;98052.00;6184371;23;20032;-62
2021/09/13 04:49:14;;;;;;;0.20;0.20;;;;;;;8.49;59.06;98068.28;6184440;23;20013;-62
2021/09/13 04:51:39;;;;;;;1.20;0.70;;;;;;;8.44;58.67;98059.94;6184422;23;20012;-62
2021/09/13 04:54:05;;;;;;;2.70;0.93;;;;;;;8.38;58.48;98059.81;6184379;23;20036;-63
2021/09/13 04:56:31;;;;;;;16.27;1.20;;;;;;;8.37;57.87;98060.06;6184367;23;20016;-63
2021/09/13 04:58:57;;;;;;;0.60;0.60;;;;;;;8.35;57.59;98059.47;6183311;23;20016;-63
2021/09/13 05:01:22;;;;;;;0.40;0.40;;;;;;;8.35;57.32;98060.31;6184394;23;20104;-64
2021/09/13 05:03:49;;;;;;;4.18;1.65;;;;;;;8.38;56.83;98065.28;6183718;23;20008;-62
2021/09/13 05:06:15;;;;;;;4.35;1.17;;;;;;;8.49;56.53;98055.44;6185515;23;20012;-63
2021/09/13 05:08:40;;;;;;;0.80;0.47;;;;;;;8.67;55.67;98061.84;6185935;23;20468;-64
2021/09/13 05:11:06;;;;;;;0.40;0.40;;;;;;;8.86;55.06;98060.63;6185612;23;20561;-63
2021/09/13 05:13:32;;;;;;;0.13;0.13;;;;;;;9.05;54.59;98053.03;6185545;23;20013;-64
2021/09/13 05:15:57;;;;;;;0.40;0.40;;;;;;;9.21;53.99;98056.09;6185695;23;20358;-63
2021/09/13 05:18:23;;;;;;;0.75;0.40;;;;;;;9.39;53.60;98058.63;6184542;23;20060;-64
2021/09/13 05:20:49;;;;;;;0.98;0.63;;;;;;;9.51;53.25;98057.72;6185074;23;20331;-62
2021/09/13 05:23:14;;;;;;;0.65;0.45;;;;;;;9.69;52.81;98052.03;6185253;23;20012;-64
2021/09/13 05:25:40;;;;;;;0.40;0.40;;;;;;;9.93;52.59;98046.38;6157936;23;20020;-63
2021/09/13 05:28:06;;;;;;;2.33;0.52;;;;;;;10.24;51.87;98053.16;6184759;23;20017;-63
2021/09/13 05:30:32;;;;;;;0.20;0.20;;;;;;;10.51;51.08;98047.84;6185850;23;20013;-62
2021/09/13 05:32:57;;;;;;;0.20;0.20;;;;;;;10.61;51.19;98047.13;6185637;23;20005;-62
2021/09/13 05:35:24;;;;;;;0.20;0.20;;;;;;;10.72;50.77;98047.28;6186054;23;20020;-63
2021/09/13 05:37:49;;;;;;;0.40;0.40;;;;;;;10.97;50.51;98042.13;6185640;23;20020;-62
2021/09/13 05:40:15;;;;;;;0.20;0.20;;;;;;;11.14;50.14;98041.19;6185636;23;20450;-63
2021/09/13 05:42:41;;;;;;;0.30;0.30;;;;;;;11.36;50.01;98043.91;6159211;23;20065;-63
2021/09/13 05:45:07;;;;;;;1.35;0.68;;;;;;;11.46;49.77;98041.25;6185466;23;20075;-63
2021/09/13 05:47:33;;;;;;;0.20;0.20;;;;;;;11.35;49.98;98040.34;6185330;23;20573;-67
2021/09/13 05:49:59;;;;;;;0.68;0.43;;;;;;;11.25;50.49;98050.38;6185729;23;20044;-63
2021/09/13 05:52:25;;;;;;;0.30;0.30;;;;;;;11.02;50.64;98044.91;6185576;23;20078;-63
2021/09/13 05:54:51;;;;;;;0.85;0.55;;;;;;;10.82;51.39;98050.16;6183923;23;20016;-64
2021/09/13 05:57:17;;;;;;;0.20;0.20;;;;;;;10.67;51.57;98040.66;6183166;23;20013;-64
2021/09/13 05:59:43;;;;;;;0.30;0.30;;;;;;;10.57;51.59;98037.78;6184597;23;20013;-62
2021/09/13 06:02:10;;;;;;;0.35;0.35;;;;;;;10.41;52.07;98036.72;6185078;23;20398;-64
2021/09/13 06:04:37;;;;;;;0.20;0.20;;;;;;;10.38;51.83;98039.13;6184732;23;20009;-63
2021/09/13 06:07:04;;;;;;;0.50;0.50;;;;;;;10.36;51.96;98028.41;6184973;23;20116;-63
2021/09/13 06:09:30;;;;;;;0.38;0.30;;;;;;;10.31;52.00;98026.38;6183392;23;20012;-63
2021/09/13 06:11:56;;;;;;;0.28;0.28;;;;;;;10.22;51.91;98027.06;6185169;23;20091;-63
2021/09/13 06:14:22;;;;;;;0.32;0.32;;;;;;;10.19;51.96;98028.41;6185193;23;20044;-62
2021/09/13 06:16:48;;;;;;;0.63;0.30;;;;;;;10.15;52.19;98025.31;6185089;23;20468;-63
2021/09/13 06:19:14;;;;;;;0.15;0.15;;;;;;;10.11;52.03;98024.16;6185188;23;20079;-63
2021/09/13 06:21:39;;;;;;;0.45;0.40;;;;;;;10.09;52.00;98025.53;6185288;23;20450;-63
2021/09/13 06:24:05;;;;;;;0.47;0.32;;;;;;;9.90;52.14;98024.94;6182129;23;20100;-63
2021/09/13 06:26:31;;;;;;;0.30;0.25;;;;;;;9.65;52.64;98034.41;6185226;23;20012;-62
2021/09/13 06:28:57;;;;;;;0.20;0.20;;;;;;;9.47;52.79;98030.81;6158235;23;20346;-62
2021/09/13 06:31:23;;;;;;;0.75;0.73;;;;;;;9.30;53.13;98021.72;6184657;23;20013;-63
2021/09/13 06:33:48;;;;;;;0.10;0.10;;;;;;;9.24;52.93;98028.19;6185084;23;20433;-63
2021/09/13 06:36:14;;;;;;;0.20;0.20;;;;;;;9.29;52.76;98014.63;6185558;23;20013;-63
2021/09/13 06:38:42;;;;;;;0.10;0.10;;;;;;;9.31;52.62;98012.44;6184806;23;20013;-63
2021/09/13 06:41:08;;;;;;;0.20;0.20;;;;;;;9.34;52.60;98016.59;6184824;23;20027;-64
2021/09/13 06:43:34;;;;;;;0.22;0.22;;;;;;;9.41;52.15;98014.53;6184513;23;20080;-63
2021/09/13 06:48:35;;;;;;;0.28;0.28;;;;;;;9.55;51.72;98015.03;6191142;23;20016;-64
2021/09/13 06:51:01;;;;;;;0.22;0.22;;;;;;;9.61;51.87;98027.75;6184947;23;20013;-63
2021/09/13 06:53:27;;;;;;;0.35;0.35;;;;;;;9.63;51.57;98036.56;6184924;23;20008;-63
2021/09/13 06:55:52;;;;;;;1.02;0.40;;;;;;;9.59;51.52;98032.66;6184727;23;20021;-62
2021/09/13 06:58:18;;;;;;;0.20;0.20;;;;;;;9.61;51.53;98022.28;6184637;23;20017;-63
2021/09/13 07:00:44;;;;;;;0.28;0.28;;;;;;;9.63;51.51;98029.19;6184622;23;20020;-63
2021/09/13 07:03:10;;;;;;;0.20;0.20;;;;;;;9.67;51.17;98021.28;6184764;23;20339;-62
2021/09/13 07:05:36;;;;;;;0.20;0.20;;;;;;;9.86;50.95;98015.56;6184844;23;20033;-62
2021/09/13 07:08:02;;;;;;;0.35;0.28;;;;;;;10.11;50.40;98015.94;6184629;23;20032;-63
2021/09/13 07:10:28;;;;;;;0.20;0.20;;;;;;;10.23;50.15;98012.28;6183157;23;20453;-62
2021/09/13 07:12:54;;;;;;;0.20;0.20;;;;;;;10.14;50.37;98004.50;6184396;23;20012;-64
2021/09/13 07:15:20;;;;;;;0.20;0.20;;;;;;;10.04;50.32;98003.47;6184880;23;20084;-63
2021/09/13 07:17:45;;;;;;;0.10;0.10;;;;;;;10.03;50.43;98008.16;6184504;23;20041;-63
2021/09/13 07:20:12;;;;;;;0.50;0.50;;;;;;;9.97;50.72;97998.19;6184733;23;20012;-63
2021/09/13 07:22:38;;;;;;;0.10;0.10;;;;;;;9.80;50.91;97999.03;6184276;23;20009;-63
2021/09/13 07:25:04;;;;;;;0.52;0.30;;;;;;;9.70;51.02;97996.13;6184785;23;20040;-68
2021/09/13 07:27:30;;;;;;;0.28;0.28;;;;;;;9.73;51.20;97992.03;6184339;23;20067;-63
2021/09/13 07:29:59;;;;;;;0.47;0.47;;;;;;;9.74;51.13;97994.53;6184644;23;20021;-64
2021/09/13 07:32:26;;;;;;;0.28;0.28;;;;;;;9.85;50.72;97983.72;6184662;23;20063;-62
2021/09/13 07:34:52;;;;;;;0.35;0.32;;;;;;;9.99;50.54;97974.91;6184409;23;20043;-64
2021/09/13 07:37:17;;;;;;;0.13;0.13;;;;;;;10.15;50.08;97981.44;6184870;23;20009;-62
2021/09/13 07:39:43;;;;;;;0.22;0.22;;;;;;;10.28;50.04;97983.00;6158208;23;20029;-64
2021/09/13 07:42:09;;;;;;;0.28;0.28;;;;;;;10.35;49.71;97971.88;6184653;23;20057;-63
2021/09/13 07:44:34;;;;;;;0.32;0.32;;;;;;;10.38;49.63;97976.00;6184868;23;20051;-63
2021/09/13 07:47:00;;;;;;;0.50;0.50;;;;;;;10.32;49.63;97966.84;6184638;23;20036;-63
2021/09/13 07:49:26;;;;;;;1.10;1.10;;;;;;;10.27;49.72;97972.28;6184392;23;20017;-64
2021/09/13 07:51:52;;;;;;;1.23;0.73;;;;;;;10.24;50.01;97975.53;6184530;23;20013;-64
2021/09/13 07:54:18;;;;;;;0.57;0.57;;;;;;;10.17;49.81;97964.72;6184710;23;20410;-64
2021/09/13 07:56:44;;;;;;;0.30;0.30;;;;;;;10.15;49.66;97966.91;6184895;23;20009;-64
2021/09/13 07:59:10;;;;;;;0.20;0.20;;;;;;;10.20;49.81;97963.41;6183923;23;20015;-63
2021/09/13 08:01:36;;;;;;;0.25;0.25;;;;;;;10.18;49.62;97958.97;6184563;23;20366;-63
2021/09/13 08:04:02;;;;;;;0.20;0.20;;;;;;;10.13;49.57;97942.47;6184274;23;20446;-64
2021/09/13 08:06:27;;;;;;;0.20;0.20;;;;;;;10.05;49.77;97951.13;6184355;23;20016;-65
2021/09/13 08:08:53;;;;;;;3.70;0.30;;;;;;;10.00;49.68;97951.06;6182404;23;20020;-63
2021/09/13 08:11:19;;;;;;;0.10;0.10;;;;;;;9.96;49.87;97952.66;6184759;23;20009;-63
2021/09/13 08:13:45;;;;;;;0.20;0.20;;;;;;;9.88;49.92;97950.31;6184295;23;20016;-64
2021/09/13 08:16:12;;;;;;;0.20;0.20;;;;;;;9.80;49.85;97943.34;6184699;23;20017;-64
2021/09/13 08:18:38;;;;;;;0.20;0.20;;;;;;;9.78;49.98;97940.88;6184455;23;20016;-64
2021/09/13 08:21:08;;;;;;;0.47;0.25;;;;;;;9.80;49.82;97944.22;6184332;23;20013;-64
2021/09/13 08:23:35;;;;;;;1.40;0.35;;;;;;;9.81;49.63;97934.88;6184442;23;20059;-63
2021/09/13 08:26:02;;;;;;;0.40;0.40;;;;;;;9.81;49.78;97934.88;6184585;23;20019;-64
2021/09/13 08:28:28;;;;;;;0.30;0.30;;;;;;;9.86;49.67;97938.78;6184068;23;20020;-64
2021/09/13 08:30:54;;;;;;;0.20;0.20;;;;;;;9.88;49.64;97929.22;6184313;23;20389;-65
2021/09/13 08:33:20;;;;;;;0.20;0.20;;;;;;;9.95;49.50;97929.88;6185532;23;20008;-63
2021/09/13 08:35:47;;;;;;;0.20;0.20;;;;;;;10.03;49.12;97920.38;6186320;23;20470;-66
2021/09/13 08:38:12;;;;;;;1.10;0.68;;;;;;;10.05;49.22;97918.22;6186112;23;20013;-67
2021/09/13 08:40:38;;;;;;;0.20;0.20;;;;;;;10.05;49.20;97907.25;6186859;23;20015;-63
2021/09/13 08:43:05;;;;;;;0.15;0.15;;;;;;;10.03;49.17;97914.91;6186363;23;20013;-63
2021/09/13 08:48:25;;;;;;;0.40;0.40;;;;;;;10.18;48.84;97920.56;6186107;23;20017;-62
2021/09/13 08:53:24;;;;;;;9.10;1.85;;;;;;;9.97;49.24;97905.78;6185940;23;20072;-65
2021/09/13 08:55:51;;;;;;;0.20;0.20;;;;;;;9.94;49.42;97910.94;6186101;23;20386;-63
2021/09/13 08:58:23;;;;;;;0.50;0.50;;;;;;;9.99;49.42;97906.34;6185652;23;20068;-63
2021/09/13 09:00:51;;;;;;;0.22;0.22;;;;;;;10.05;49.02;97906.41;6185706;23;20354;-65
2021/09/13 09:03:17;;;;;;;0.30;0.30;;;;;;;10.18;48.80;97906.84;6186084;23;20346;-64
2021/09/13 09:06:22;;;;;;;0.20;0.20;;;;;;;10.35;48.49;97897.78;6185707;23;20387;-64
2021/09/13 09:12:34;;;;;;;0.25;0.25;;;;;;;10.64;48.10;97905.78;6184222;23;19918;-63
2021/09/13 09:15:42;;;;;;;0.22;0.22;;;;;;;10.76;47.62;97900.16;6184316;23;20012;-64
2021/09/13 09:19:05;;;;;;;0.20;0.20;;;;;;;10.66;47.90;97906.38;6182730;23;20465;-64
2021/09/13 09:25:46;;;;;;;0.20;0.20;;;;;;;10.50;48.05;97892.47;6181900;23;20023;-62
2021/09/13 09:35:39;;;;;;;0.40;0.40;;;;;;;10.34;48.43;97896.13;6176060;23;20120;-64
2021/09/13 09:38:47;;;;;;;0.20;0.20;;;;;;;10.37;48.07;97894.78;6171882;23;20021;-62
2021/09/13 09:41:53;;;;;;;0.47;0.30;;;;;;;10.35;48.09;97889.56;6182052;23;20043;-63
2021/09/13 09:45:01;;;;;;;0.38;0.30;;;;;;;10.36;47.97;97896.69;6180033;23;20013;-64
2021/09/13 09:48:22;;;;;;;0.25;0.25;;;;;;;10.38;48.21;97890.94;6181357;23;20037;-63
2021/09/13 09:51:25;;;;;;;0.20;0.20;;;;;;;10.42;47.59;97883.84;6181712;23;20013;-63
2021/09/13 09:54:32;;;;;;;0.20;0.20;;;;;;;10.44;47.77;97878.97;6183154;23;20009;-65
2021/09/13 09:57:43;;;;;;;0.20;0.20;;;;;;;10.49;47.59;97885.31;6182247;23;20442;-65
2021/09/13 10:00:44;;;;;;;0.55;0.55;;;;;;;10.57;47.63;97883.19;6182408;23;20331;-64
2021/09/13 10:13:57;;;;;;;0.20;0.20;;;;;;;10.57;47.24;97881.31;6179629;23;20473;-64
2021/09/13 10:17:05;;;;;;;0.20;0.20;;;;;;;10.63;47.18;97891.25;6182187;23;20092;-64
2021/09/13 10:23:34;;;;;;;0.20;0.20;;;;;;;10.65;47.00;97893.72;6175325;23;20020;-65
2021/09/13 10:26:39;;;;;;;0.20;0.20;;;;;;;10.67;46.97;97891.53;6172948;23;20079;-66
2021/09/13 10:29:05;;;;;;;;;;;;;;;10.66;47.17;97889.91;6181982;23;20450;-66
2021/09/13 10:31:43;;;;;;;0.20;0.20;;;;;;;10.70;46.78;97891.03;6182450;23;19998;-65
2021/09/13 10:34:35;;;;;;;0.20;0.20;;;;;;;10.75;46.85;97887.50;6182456;23;20390;-68
2021/09/13 10:37:01;;;;;;;0.10;0.10;;;;;;;10.76;46.88;97898.25;6182129;23;20094;-64
2021/09/13 10:39:54;;;;;;;0.15;0.15;;;;;;;10.79;46.88;97892.25;6181909;23;20013;-64
2021/09/13 10:42:29;;;;;;;0.20;0.20;;;;;;;10.79;47.02;97884.00;6181770;23;20095;-64
2021/09/13 10:45:36;;;;;;;0.25;0.20;;;;;;;10.81;46.74;97887.31;6182141;23;20092;-64
2021/09/13 10:48:42;;;;;;;0.10;0.10;;;;;;;10.84;46.76;97892.28;6182485;23;20486;-63
2021/09/13 10:51:27;;;;;;;;;;;;;;;10.83;46.92;97887.06;6182584;23;20424;-65
2021/09/13 10:57:53;;;;;;;0.10;0.10;;;;;;;10.84;46.77;97874.97;6180518;23;20027;-63
2021/09/13 11:00:40;;;;;;;0.63;0.35;;;;;;;10.83;46.59;97870.56;6181340;23;20023;-65
2021/09/13 11:07:07;;;;;;;0.20;0.20;;;;;;;10.83;46.33;97874.13;6181091;23;20074;-64
2021/09/13 11:10:14;;;;;;;0.20;0.20;;;;;;;10.90;46.33;97878.63;6181759;23;20026;-63
2021/09/13 11:12:59;;;;;;;;;;;;;;;10.92;46.31;97866.25;6181836;23;20016;-64
2021/09/13 11:29:03;;;;;;;0.20;0.20;;;;;;;10.99;46.05;97857.81;6180867;23;20527;-66
2021/09/13 11:31:54;;;;;;;0.20;0.20;;;;;;;10.98;46.01;97858.91;6183319;23;20400;-64
2021/09/13 11:38:22;;;;;;;0.88;0.32;;;;;;;11.05;45.84;97862.25;6177344;23;20068;-64
2021/09/13 14:25:56;;;;;;;0.77;0.73;;;;;;;7.94;49.36;97889.88;6178853;23;20039;-68
2021/09/13 14:28:22;;;;;;;1.23;1.13;;;;;;;7.88;49.50;97893.56;6152796;23;20542;-68
2021/09/13 14:30:47;;;;;;;3.58;1.23;;;;;;;7.85;49.54;97886.66;6148356;23;20009;-67
2021/09/13 14:33:13;;;;;;;0.82;0.82;;;;;;;7.81;49.46;97885.47;6176715;23;20350;-67
2021/09/13 14:35:39;;;;;;;0.52;0.52;;;;;;;7.81;49.43;97882.75;6151580;23;20439;-66
2021/09/13 14:38:04;;;;;;;0.88;0.68;;;;;;;7.79;49.47;97881.31;6152397;23;20093;-65
2021/09/13 14:40:31;;;;;;;0.30;0.30;;;;;;;7.78;49.43;97882.41;6151618;23;20525;-66
2021/09/13 14:42:56;;;;;;;0.90;0.77;;;;;;;7.76;49.44;97885.38;6153213;23;20017;-65
2021/09/13 14:45:22;;;;;;;0.60;0.60;;;;;;;7.72;49.56;97882.28;6152324;23;20044;-64
2021/09/13 14:47:48;;;;;;;2.80;1.52;;;;;;;7.71;49.50;97891.56;6151408;23;20044;-65
2021/09/13 14:50:14;;;;;;;2.10;0.93;;;;;;;7.68;49.49;97880.28;6151668;23;20021;-66
2021/09/13 14:52:40;;;;;;;1.17;0.52;;;;;;;7.62;49.75;97887.53;6150935;23;20355;-72
2021/09/13 14:55:09;;;;;;;2.58;0.82;;;;;;;7.57;49.89;97879.22;6153390;23;20013;-65
2021/09/13 14:57:36;;;;;;;2.50;1.25;;;;;;;7.51;50.05;97885.66;6150394;23;20017;-65
2021/09/13 15:00:05;;;;;;;0.20;0.20;;;;;;;7.46;50.05;97877.31;6151260;23;20009;-64
2021/09/13 15:02:31;;;;;;;0.20;0.20;;;;;;;7.41;50.28;97890.88;6151218;23;20016;-65
2021/09/13 15:04:58;;;;;;;0.45;0.45;;;;;;;7.36;50.34;97897.00;6151792;23;20010;-64
2021/09/13 15:07:24;;;;;;;0.30;0.30;;;;;;;7.29;50.48;97888.94;6152938;23;20092;-64
2021/09/13 15:09:51;;;;;;;1.13;1.02;;;;;;;7.23;50.63;97883.59;6151526;23;20017;-65
2021/09/13 15:12:20;;;;;;;0.45;0.45;;;;;;;7.16;50.75;97881.00;6151711;23;20104;-64
2021/09/13 15:14:46;;;;;;;0.73;0.73;;;;;;;7.10;51.06;97892.84;6151498;23;20852;-66
2021/09/13 15:17:12;;;;;;;0.40;0.40;;;;;;;7.01;51.23;97885.00;6151485;23;20013;-66
2021/09/13 15:19:38;;;;;;;0.30;0.28;;;;;;;6.94;51.28;97891.63;6153215;23;20010;-62
2021/09/13 15:22:04;;;;;;;0.25;0.25;;;;;;;6.88;51.33;97887.94;6151289;23;20421;-65
2021/09/13 15:24:30;;;;;;;0.35;0.35;;;;;;;6.83;51.62;97887.78;6151710;23;20093;-67
2021/09/13 15:26:59;;;;;;;0.50;0.50;;;;;;;6.79;51.70;97883.88;6164010;23;20052;-67
2021/09/13 15:29:24;;;;;;;1.15;1.15;;;;;;;6.73;51.77;97892.97;6180711;23;20358;-67
2021/09/13 15:31:50;;;;;;;0.45;0.45;;;;;;;6.68;51.77;97879.22;6155006;23;20019;-65
2021/09/13 15:34:22;;;;;;;0.40;0.40;;;;;;;6.65;51.96;97877.78;6181659;23;20346;-70
2021/09/13 15:36:48;;;;;;;0.30;0.30;;;;;;;6.62;51.87;97889.97;6182287;23;20108;-64
2021/09/13 15:39:14;;;;;;;0.30;0.30;;;;;;;6.58;52.09;97887.97;6182779;23;20025;-63